1853 Major Hurricane NOT_NAMED (1853242N12336)


IBTrACS version v04r00. Visit IBTrACS website for data access.
Please direct all questions to the IBTrACS Q and A forum

Storm track - Intensity - Wind Radii - Intensity Data - Source Data - All data

Summary Information

Storm ID 1853242N12336
Start Aug 30 00Z
Max Intensity 130 kt (Sep 3 00Z), 924 mb (Sep 3 12Z)
End Sep 11 06Z
ATCF IDs ,AL031853
Track status Best track data.

Storm track plot

Map of storm track

Intensity plots

Map of storm track

Radial wind information

No radial wind information for this storm


Position and Intensity Table

BASIN ISO_TIME_________ NATURE LAT LON WMO WIND WMO PRES USA WIND USA PRES MLC WIND MLC PRES
degrees north degrees east kts mb kts mb kts mb
NA 1853-08-30 00:00:00 TS 11.77 -23.87 40 40 30
NA 03:00:00 TS 11.87 -24.78 40 30
NA 06:00:00 TS 11.97 -25.70 40 40 30
NA 09:00:00 TS 12.06 -26.62 40 35
NA 12:00:00 TS 12.17 -27.53 40 40 40
NA 15:00:00 TS 12.30 -28.45 40 45
NA 18:00:00 TS 12.43 -29.37 40 40 50
NA 21:00:00 TS 12.55 -30.31 45 50
NA 1853-08-31 00:00:00 TS 12.67 -31.27 50 50 50
NA 03:00:00 TS 12.80 -32.25 50 55
NA 06:00:00 TS 12.93 -33.23 50 50 60
NA 09:00:00 TS 13.06 -34.20 55 60
NA 12:00:00 TS 13.20 -35.13 60 60 60
NA 15:00:00 TS 13.36 -36.03 60 60
NA 18:00:00 TS 13.53 -36.90 60 60 60
NA 21:00:00 TS 13.68 -37.74 65 65
NA 1853-09-01 00:00:00 TS 13.83 -38.60 70 70 70
NA 03:00:00 TS 14.05 -39.56 70 72
NA 06:00:00 TS 14.27 -40.53 70 70 75
NA 09:00:00 TS 14.43 -41.44 75 77
NA 12:00:00 TS 14.57 -42.30 80 80 80
NA 15:00:00 TS 14.70 -43.12 80 82
NA 18:00:00 TS 14.87 -43.93 80 80 85
NA 21:00:00 TS 15.10 -44.81 85 87
NA 1853-09-02 00:00:00 TS 15.37 -45.70 90 90 90
NA 03:00:00 TS 15.60 -46.54 90 95
NA 06:00:00 TS 15.83 -47.37 90 90 100
NA 09:00:00 TS 16.07 -48.20 95 105
NA 12:00:00 TS 16.33 -49.07 100 100 110
NA 15:00:00 TS 16.64 -50.01 105 115
NA 18:00:00 TS 17.00 -50.97 110 110 120
NA 21:00:00 TS 17.41 -51.86 115 125
NA 1853-09-03 00:00:00 TS 17.83 -52.73 120 120 130 928
NA 03:00:00 TS 18.24 -53.64 125 130
NA 06:00:00 TS 18.63 -54.53 130 130 130
NA 09:00:00 TS 18.98 -55.35 130 130
NA 12:00:00 TS 19.33 -56.17 130 924 130 924 130
NA 15:00:00 TS 19.79 -57.03 130 130
NA 18:00:00 TS 20.23 -57.93 130 130 130
NA 21:00:00 TS 20.55 -58.86 125 127
NA 1853-09-04 00:00:00 TS 20.87 -59.80 120 120 125
NA 03:00:00 TS 21.27 -60.72 120 125
NA 06:00:00 TS 21.70 -61.63 120 120 125
NA 09:00:00 TS 22.08 -62.55 120 125
NA 12:00:00 TS 22.47 -63.43 120 120 125
NA 15:00:00 TS 22.87 -64.26 120 125
NA 18:00:00 TS 23.30 -65.07 120 120 125
NA 21:00:00 TS 23.76 -65.94 120 122
NA 1853-09-05 00:00:00 TS 24.23 -66.80 120 120 120
NA 03:00:00 TS 24.71 -67.60 120 120
NA 06:00:00 TS 25.20 -68.37 120 120 120
NA 09:00:00 TS 25.68 -69.18 120 120
NA 12:00:00 TS 26.17 -69.93 120 120 120
NA 15:00:00 TS 26.68 -70.58 120 117
NA 18:00:00 TS 27.20 -71.17 120 120 115
NA 21:00:00 TS 27.68 -71.77 120 115
NA 1853-09-06 00:00:00 TS 28.17 -72.37 120 120 115
NA 03:00:00 TS 28.69 -72.95 120 115
NA 06:00:00 TS 29.23 -73.50 120 120 115
NA 09:00:00 TS 29.76 -74.02 120 112
NA 12:00:00 TS 30.27 -74.43 120 120 110
NA 15:00:00 TS 30.76 -74.70 120 110
NA 18:00:00 TS 31.23 -74.83 120 120 110
NA 21:00:00 TS 31.68 -74.92 115 107
NA 1853-09-07 00:00:00 TS 32.13 -74.90 110 110 105
NA 03:00:00 TS 32.65 -74.75 110 105
NA 06:00:00 TS 33.17 -74.53 110 110 105
NA 09:00:00 TS 33.64 -74.39 105 102
NA 12:00:00 TS 34.10 -74.17 100 100 100 952
NA 15:00:00 TS 34.57 -73.75 100 100
NA 18:00:00 TS 35.03 -73.20 100 100 100
NA 21:00:00 TS 35.52 -72.63 100 100
NA 1853-09-08 00:00:00 TS 35.97 -71.97 100 100 100
NA 03:00:00 TS 36.32 -71.27 100 100
NA 06:00:00 TS 36.67 -70.40 100 100 100 977
NA 09:00:00 TS 37.10 -69.28 100 100
NA 12:00:00 TS 37.57 -67.97 100 100 100
NA 15:00:00 TS 38.00 -66.64 100 100
NA 18:00:00 TS 38.43 -65.17 100 100 100
NA 21:00:00 TS 38.89 -63.39 100 100
NA 1853-09-09 00:00:00 TS 39.35 -61.40 100 100 100
NA 03:00:00 TS 39.77 -59.33 97
NA 06:00:00 TS 40.20 -56.40 90 95
NA 09:00:00 TS 40.54 -53.49 95
NA 12:00:00 TS 41.00 -50.30 80 95
NA 15:00:00 TS 41.60 -47.14 92
NA 18:00:00 TS 42.30 -44.20 70 90
NA 21:00:00 TS 43.02 -41.78 87
NA 1853-09-10 00:00:00 TS 43.80 -39.60 70 85
NA 03:00:00 TS 44.54 -37.30 82
NA 06:00:00 TS 45.30 -35.00 70 80
NA 09:00:00 TS 45.93 -32.68 77
NA 12:00:00 TS 46.80 -30.30 70 75 953
NA 15:00:00 TS 48.18 -27.71 72 956
NA 18:00:00 ET 49.80 -25.00 70 70 959
NA 21:00:00 ET 51.29 -22.28 70 962
NA 1853-09-11 00:00:00 ET 52.80 -19.50 70 965
NA 03:00:00 ET 54.32 -16.59 67
NA 06:00:00 ET 55.80 -13.50 65

Source Information

Agency Information
USA hurdat2-1851-2018-051019.txt:Line=248:UNNAMED
TOKYO
CMA
HKO
NEWDELHI
REUNION
BOM
NADI
WELLINGTON
DS824
TD9636
TD9635
NEUMANN
MLC

All available IBTrACS Data

SEASON BASIN SUBBASIN ISO_TIME_________ NATURE LAT LON WMO WIND WMO PRES WMO AGENCY DIST2LAND LANDFALL IFLAG USA AGENCY USA ATCF_ID USA LAT USA LON USA STATUS USA WIND USA PRES USA SSHS MLC LAT MLC LON MLC CLASS MLC WIND MLC PRES STORM SPEED STORM DIR
Year degrees north degrees east kts mb km km degrees north degrees east kts mb 1 degrees north degrees east kts mb kts degrees
1853 NA NA 1853-08-30 00:00:00 TS 11.77 -23.87 40 hurdat_atl 765 765 O____________O hurdat_atl AL031853 12.10 -23.20 TS 40 0 11.10 -25.20 TD 30 18 277
1853 NA NA 03:00:00 TS 11.87 -24.78 850 850 P____________P AL031853 12.20 -24.15 TS 40 0 11.20 -26.05 TD 30 18 276
1853 NA NA 06:00:00 TS 11.97 -25.70 40 hurdat_atl 937 937 O____________O hurdat_atl AL031853 12.30 -25.10 TS 40 0 11.30 -26.90 TD 30 18 276
1853 NA NA 09:00:00 TS 12.06 -26.62 1026 1026 P____________P AL031853 12.39 -26.05 TS 40 0 11.40 -27.75 TD 35 18 276
1853 NA NA 12:00:00 TS 12.17 -27.53 40 hurdat_atl 1117 1117 O____________O hurdat_atl AL031853 12.50 -27.00 TS 40 0 11.50 -28.60 TS 40 18 278
1853 NA NA 15:00:00 TS 12.30 -28.45 1209 1209 P____________P AL031853 12.65 -27.94 TS 40 0 11.59 -29.45 TS 45 18 278
1853 NA NA 18:00:00 TS 12.43 -29.37 40 hurdat_atl 1312 1312 O____________O hurdat_atl AL031853 12.80 -28.90 TS 40 0 11.70 -30.30 TS 50 18 278
1853 NA NA 21:00:00 TS 12.55 -30.31 1405 1405 P____________P AL031853 12.90 -29.89 TS 45 0 11.85 -31.15 TS 50 19 277
1853 NA NA 1853-08-31 00:00:00 TS 12.67 -31.27 50 hurdat_atl 1508 1508 O____________O hurdat_atl AL031853 13.00 -30.90 TS 50 0 12.00 -32.00 TS 50 19 277
1853 NA NA 03:00:00 TS 12.80 -32.25 1613 1613 P____________P AL031853 13.14 -31.95 TS 50 0 12.11 -32.85 TS 55 19 278
1853 NA NA 06:00:00 TS 12.93 -33.23 50 hurdat_atl 1707 1707 O____________O hurdat_atl AL031853 13.30 -33.00 TS 50 0 12.20 -33.70 TS 60 19 278
1853 NA NA 09:00:00 TS 13.06 -34.20 1811 1811 P____________P AL031853 13.45 -34.02 TS 55 0 12.28 -34.55 TS 60 19 278
1853 NA NA 12:00:00 TS 13.20 -35.13 60 hurdat_atl 1877 1865 O____________O hurdat_atl AL031853 13.60 -35.00 TS 60 0 12.40 -35.40 TS 60 18 280
1853 NA NA 15:00:00 TS 13.36 -36.03 1873 1864 P____________P AL031853 13.75 -35.92 TS 60 0 12.59 -36.25 TS 60 18 281
1853 NA NA 18:00:00 TS 13.53 -36.90 60 hurdat_atl 1865 1826 O____________O hurdat_atl AL031853 13.90 -36.80 TS 60 0 12.80 -37.10 TS 60 17 281
1853 NA NA 21:00:00 TS 13.68 -37.74 1826 1762 P____________P AL031853 14.04 -37.64 TS 65 1 12.94 -37.94 TS 65 17 280
1853 NA NA 1853-09-01 00:00:00 TS 13.83 -38.60 70 hurdat_atl 1753 1690 O____________O hurdat_atl AL031853 14.20 -38.50 HU 70 1 13.10 -38.80 HU 70 18 282
1853 NA NA 03:00:00 TS 14.05 -39.56 1681 1630 P____________P AL031853 14.40 -39.49 HU 70 1 13.35 -39.70 HU 72 19 283
1853 NA NA 06:00:00 TS 14.27 -40.53 70 hurdat_atl 1630 1567 O____________O hurdat_atl AL031853 14.60 -40.50 HU 70 1 13.60 -40.60 HU 75 19 282
1853 NA NA 09:00:00 TS 14.43 -41.44 1567 1516 P____________P AL031853 14.76 -41.43 HU 75 1 13.76 -41.46 HU 77 17 280
1853 NA NA 12:00:00 TS 14.57 -42.30 80 hurdat_atl 1517 1471 O____________O hurdat_atl AL031853 14.90 -42.30 HU 80 1 13.90 -42.30 HU 80 16 280
1853 NA NA 15:00:00 TS 14.70 -43.12 1471 1434 P____________P AL031853 15.03 -43.10 HU 80 1 14.03 -43.15 HU 82 16 281
1853 NA NA 18:00:00 TS 14.87 -43.93 80 hurdat_atl 1437 1399 O____________O hurdat_atl AL031853 15.20 -43.90 HU 80 1 14.20 -44.00 HU 85 17 284
1853 NA NA 21:00:00 TS 15.10 -44.81 1399 1365 P____________P AL031853 15.43 -44.80 HU 85 2 14.44 -44.84 HU 87 18 286
1853 NA NA 1853-09-02 00:00:00 TS 15.37 -45.70 90 hurdat_atl 1369 1337 O____________O hurdat_atl AL031853 15.70 -45.70 HU 90 2 14.70 -45.70 HU 90 17 287
1853 NA NA 03:00:00 TS 15.60 -46.54 1342 1320 P____________P AL031853 15.95 -46.51 HU 90 2 14.90 -46.60 HU 95 17 286
1853 NA NA 06:00:00 TS 15.83 -47.37 90 hurdat_atl 1315 1303 O____________O hurdat_atl AL031853 16.20 -47.30 HU 90 2 15.10 -47.50 MH 100 17 286
1853 NA NA 09:00:00 TS 16.07 -48.20 1309 1295 P____________P AL031853 16.43 -48.12 HU 95 2 15.33 -48.36 MH 105 17 287
1853 NA NA 12:00:00 TS 16.33 -49.07 100 hurdat_atl 1290 1282 O____________O hurdat_atl AL031853 16.70 -49.00 HU 100 3 15.60 -49.20 MH 110 18 288
1853 NA NA 15:00:00 TS 16.64 -50.01 1282 1281 P____________P AL031853 17.03 -49.99 HU 105 3 15.87 -50.05 MH 115 19 290
1853 NA NA 18:00:00 TS 17.00 -50.97 110 hurdat_atl 1289 1243 O____________O hurdat_atl AL031853 17.40 -51.00 HU 110 3 16.20 -50.90 MH 120 19 293
1853 NA NA 21:00:00 TS 17.41 -51.86 1235 1196 P____________P AL031853 17.78 -51.92 HU 115 4 16.65 -51.74 MH 125 19 296
1853 NA NA 1853-09-03 00:00:00 TS 17.83 -52.73 120 hurdat_atl 1196 1157 O____________O hurdat_atl AL031853 18.20 -52.80 HU 120 4 17.10 -52.60 MH 130 928 19 296
1853 NA NA 03:00:00 TS 18.24 -53.64 1157 1127 P____________P AL031853 18.66 -53.71 HU 125 4 17.40 -53.50 MH 130 19 295
1853 NA NA 06:00:00 TS 18.63 -54.53 130 hurdat_atl 1127 1086 O____________O hurdat_atl AL031853 19.10 -54.60 HU 130 4 17.70 -54.40 MH 130 18 294
1853 NA NA 09:00:00 TS 18.98 -55.35 1076 1004 P____________P AL031853 19.39 -55.40 HU 130 4 18.14 -55.26 MH 130 17 294
1853 NA NA 12:00:00 TS 19.33 -56.17 130 924 hurdat_atl 994 917 O____________O hurdat_atl AL031853 19.70 -56.20 HU 130 924 4 18.60 -56.10 MH 130 18 297
1853 NA NA 15:00:00 TS 19.79 -57.03 917 832 P____________P AL031853 20.21 -57.08 HU 130 4 18.95 -56.94 MH 130 19 298
1853 NA NA 18:00:00 TS 20.23 -57.93 130 hurdat_atl 832 750 O____________O hurdat_atl AL031853 20.70 -58.00 HU 130 4 19.30 -57.80 MH 130 19 294
1853 NA NA 21:00:00 TS 20.55 -58.86 744 673 P____________P AL031853 20.96 -58.94 HU 125 4 19.73 -58.70 MH 127 19 290
1853 NA NA 1853-09-04 00:00:00 TS 20.87 -59.80 120 hurdat_atl 668 600 O____________O hurdat_atl AL031853 21.20 -59.90 HU 120 4 20.20 -59.60 MH 125 19 292
1853 NA NA 03:00:00 TS 21.27 -60.72 606 557 P____________P AL031853 21.58 -60.85 HU 120 4 20.65 -60.47 MH 125 19 296
1853 NA NA 06:00:00 TS 21.70 -61.63 120 hurdat_atl 557 523 O____________O hurdat_atl AL031853 22.00 -61.80 HU 120 4 21.10 -61.30 MH 125 19 296
1853 NA NA 09:00:00 TS 22.08 -62.55 525 502 P____________P AL031853 22.36 -62.77 HU 120 4 21.53 -62.10 MH 125 18 295
1853 NA NA 12:00:00 TS 22.47 -63.43 120 hurdat_atl 512 503 O____________O hurdat_atl AL031853 22.70 -63.70 HU 120 4 22.00 -62.90 MH 125 18 297
1853 NA NA 15:00:00 TS 22.87 -64.26 521 518 P____________P AL031853 23.04 -64.51 HU 120 4 22.53 -63.75 MH 125 17 299
1853 NA NA 18:00:00 TS 23.30 -65.07 120 hurdat_atl 550 549 O____________O hurdat_atl AL031853 23.40 -65.30 HU 120 4 23.10 -64.60 MH 125 18 300
1853 NA NA 21:00:00 TS 23.76 -65.94 603 599 P____________P AL031853 23.79 -66.21 HU 120 4 23.68 -65.40 MH 122 18 300
1853 NA NA 1853-09-05 00:00:00 TS 24.23 -66.80 120 hurdat_atl 605 605 O____________O hurdat_atl AL031853 24.20 -67.10 HU 120 4 24.30 -66.20 MH 120 18 302
1853 NA NA 03:00:00 TS 24.71 -67.60 621 621 P____________P AL031853 24.60 -67.87 HU 120 4 24.94 -67.04 MH 120 17 304
1853 NA NA 06:00:00 TS 25.20 -68.37 120 hurdat_atl 644 630 O____________O hurdat_atl AL031853 25.00 -68.60 HU 120 4 25.60 -67.90 MH 120 17 304
1853 NA NA 09:00:00 TS 25.68 -69.18 634 628 P____________P AL031853 25.40 -69.39 HU 120 4 26.23 -68.75 MH 120 17 304
1853 NA NA 12:00:00 TS 26.17 -69.93 120 hurdat_atl 641 636 O____________O hurdat_atl AL031853 25.80 -70.10 HU 120 4 26.90 -69.60 MH 120 16 309
1853 NA NA 15:00:00 TS 26.68 -70.58 661 661 P____________P AL031853 26.21 -70.65 HU 120 4 27.63 -70.44 MH 117 15 313
1853 NA NA 18:00:00 TS 27.20 -71.17 120 hurdat_atl 694 686 O____________O hurdat_atl AL031853 26.60 -71.10 HU 120 4 28.40 -71.30 MH 115 15 313
1853 NA NA 21:00:00 TS 27.68 -71.77 681 657 P____________P AL031853 26.94 -71.56 HU 120 4 29.16 -72.21 MH 115 14 312
1853 NA NA 1853-09-06 00:00:00 TS 28.17 -72.37 120 hurdat_atl 654 638 O____________O hurdat_atl AL031853 27.30 -72.00 HU 120 4 29.90 -73.10 MH 115 15 314
1853 NA NA 03:00:00 TS 28.69 -72.95 637 636 P____________P AL031853 27.74 -72.47 HU 120 4 30.61 -73.92 MH 115 15 317
1853 NA NA 06:00:00 TS 29.23 -73.50 120 hurdat_atl 638 601 O____________O hurdat_atl AL031853 28.20 -72.90 HU 120 4 31.30 -74.70 MH 115 14 319
1853 NA NA 09:00:00 TS 29.76 -74.02 592 533 P____________P AL031853 28.63 -73.23 HU 120 4 32.00 -75.60 MH 112 13 322
1853 NA NA 12:00:00 TS 30.27 -74.43 120 hurdat_atl 525 472 O____________O hurdat_atl AL031853 29.10 -73.50 HU 120 4 32.60 -76.30 MH 110 12 330
1853 NA NA 15:00:00 TS 30.76 -74.70 463 421 P____________P AL031853 29.64 -73.77 HU 120 4 32.99 -76.55 MH 110 10 340
1853 NA NA 18:00:00 TS 31.23 -74.83 120 hurdat_atl 421 366 O____________O hurdat_atl AL031853 30.20 -74.00 HU 120 4 33.30 -76.50 MH 110 9 348
1853 NA NA 21:00:00 TS 31.68 -74.92 366 325 P____________P AL031853 30.68 -74.20 HU 115 4 33.66 -76.37 MH 107 9 357
1853 NA NA 1853-09-07 00:00:00 TS 32.13 -74.90 110 hurdat_atl 325 281 O____________O hurdat_atl AL031853 31.20 -74.30 HU 110 3 34.00 -76.10 MH 105 10 9
1853 NA NA 03:00:00 TS 32.65 -74.75 287 249 P____________P AL031853 31.84 -74.24 HU 110 3 34.27 -75.77 MH 105 11 17
1853 NA NA 06:00:00 TS 33.17 -74.53 110 hurdat_atl 248 226 O____________O hurdat_atl AL031853 32.50 -74.10 HU 110 3 34.50 -75.40 MH 105 10 17
1853 NA NA 09:00:00 TS 33.64 -74.39 226 211 P____________P AL031853 33.11 -74.06 HU 105 3 34.71 -75.06 MH 102 10 18
1853 NA NA 12:00:00 TS 34.10 -74.17 100 hurdat_atl 211 204 O____________O hurdat_atl AL031853 33.70 -73.90 HU 100 3 34.90 -74.70 MH 100 952 11 30
1853 NA NA 15:00:00 TS 34.57 -73.75 210 210 P____________P AL031853 34.31 -73.48 HU 100 3 35.08 -74.28 MH 100 12 40
1853 NA NA 18:00:00 TS 35.03 -73.20 100 hurdat_atl 226 222 O____________O hurdat_atl AL031853 34.90 -72.90 HU 100 3 35.30 -73.80 MH 100 13 44
1853 NA NA 21:00:00 TS 35.52 -72.63 263 262 P____________P AL031853 35.48 -72.30 HU 100 3 35.59 -73.28 MH 100 14 47
1853 NA NA 1853-09-08 00:00:00 TS 35.97 -71.97 100 hurdat_atl 315 315 O____________O hurdat_atl AL031853 36.00 -71.60 HU 100 3 35.90 -72.70 MH 100 14 54
1853 NA NA 03:00:00 TS 36.32 -71.27 380 380 P____________P AL031853 36.43 -70.80 HU 100 3 36.09 -72.21 MH 100 14 61
1853 NA NA 06:00:00 TS 36.67 -70.40 100 hurdat_atl 450 450 O____________O hurdat_atl AL031853 36.80 -69.90 HU 100 3 36.40 -71.40 MH 100 977 18 64
1853 NA NA 09:00:00 TS 37.10 -69.28 500 489 P____________P AL031853 37.16 -68.96 HU 100 3 37.00 -69.91 MH 100 21 65
1853 NA NA 12:00:00 TS 37.57 -67.97 100 hurdat_atl 487 486 O____________O hurdat_atl AL031853 37.50 -67.90 HU 100 3 37.70 -68.10 MH 100 23 67
1853 NA NA 15:00:00 TS 38.00 -66.64 503 499 P____________P AL031853 37.84 -66.73 HU 100 3 38.33 -66.47 MH 100 24 69
1853 NA NA 18:00:00 TS 38.43 -65.17 100 hurdat_atl 548 533 O____________O hurdat_atl AL031853 38.20 -65.40 HU 100 3 38.90 -64.70 MH 100 27 71
1853 NA NA 21:00:00 TS 38.89 -63.39 535 533 P____________P AL031853 38.59 -63.90 HU 100 3 39.35 -62.65 MH 100 31 73
1853 NA NA 1853-09-09 00:00:00 TS 39.35 -61.40 100 hurdat_atl 559 564 O____________O hurdat_atl AL031853 39.00 -62.30 HU 100 3 39.70 -60.50 MH 100 33 74
1853 NA NA 03:00:00 TS 39.77 -59.33 614 614 _____________P AL031853 HU -1 39.94 -58.58 MH 97 39 78
1853 NA NA 06:00:00 TS 40.20 -56.40 90 hurdat_atl 674 674 _____________O 40.20 -56.40 HU 95 45 80
1853 NA NA 09:00:00 TS 40.54 -53.49 678 653 _____________P 40.54 -53.49 HU 95 47 80
1853 NA NA 12:00:00 TS 41.00 -50.30 80 hurdat_atl 664 664 _____________O 41.00 -50.30 HU 95 49 78
1853 NA NA 15:00:00 TS 41.60 -47.14 737 737 _____________P 41.60 -47.14 HU 92 47 74
1853 NA NA 18:00:00 TS 42.30 -44.20 70 hurdat_atl 855 855 _____________O 42.30 -44.20 HU 90 42 70
1853 NA NA 21:00:00 TS 43.02 -41.78 973 973 _____________P 43.02 -41.78 HU 87 37 66
1853 NA NA 1853-09-10 00:00:00 TS 43.80 -39.60 70 hurdat_atl 1085 1085 _____________O 43.80 -39.60 HU 85 36 65
1853 NA NA 03:00:00 TS 44.54 -37.30 1220 1220 _____________P 44.54 -37.30 HU 82 36 65
1853 NA NA 06:00:00 TS 45.30 -35.00 70 hurdat_atl 1362 1362 _____________O 45.30 -35.00 HU 80 35 67
1853 NA NA 09:00:00 TS 45.93 -32.68 1517 1517 _____________P 45.93 -32.68 HU 77 36 65
1853 NA NA 12:00:00 TS 46.80 -30.30 70 hurdat_atl 1533 1308 _____________O 46.80 -30.30 HU 75 953 41 56
1853 NA NA 15:00:00 TS 48.18 -27.71 1290 1057 _____________P 48.18 -27.71 HU 72 956 46 50
1853 NA NA 18:00:00 ET 49.80 -25.00 70 hurdat_atl 1040 821 _____________I 49.80 -25.00 EX 70 959 47 48
1853 NA NA 21:00:00 ET 51.29 -22.28 813 624 _____________P 51.29 -22.28 EX 70 962 45 49
1853 NA NA 1853-09-11 00:00:00 ET 52.80 -19.50 611 433 _____________O 52.80 -19.50 EX 70 965 46 49
1853 NA NA 03:00:00 ET 54.32 -16.59 419 282 _____________P 54.32 -16.59 EX 67 46 49
1853 NA NA 06:00:00 ET 55.80 -13.50 279 _____________O 55.80 -13.50 EX 65 46 50